Time;durP1;ratioP1;P1;durP2;ratioP2;P2;SDS_P1;SDS_P2;PMS_P1;PMS_P2;Temp;Humidity;BMP_temperature;BMP_pressure;BME280_temperature;BME280_humidity;BME280_pressure;Samples;Min_cycle;Max_cycle;Signal;HPM_P1;HPM_P2
2022/04/06 00:10:34;;;;;;;;;;;;;;;;;;;;;
2022/04/06 00:51:39;;;;;;;;;;;;;;;;;;;;;
2022/04/06 01:01:04;;;;;;;19.73;7.35;;;8.90;99.90;;;;;;6210889;23;20020;-84
2022/04/06 01:15:03;;;;;;;22.40;6.35;;;8.90;99.90;;;;;;6130147;23;20344;-84
2022/04/06 01:35:42;;;;;;;21.17;6.70;;;8.90;99.90;;;;;;6076670;23;20022;-84
2022/04/06 01:38:28;;;;;;;17.55;6.82;;;8.90;99.90;;;;;;6024051;23;20026;-84
2022/04/06 01:41:55;;;;;;;20.45;5.97;;;8.90;99.90;;;;;;6023666;23;20019;-85
2022/04/06 01:45:00;;;;;;;19.33;5.28;;;8.90;99.90;;;;;;6022473;23;20030;-84
2022/04/06 01:53:30;;;;;;;19.63;6.32;;;9.00;99.90;;;;;;6198386;23;20017;-84
2022/04/06 01:57:12;;;;;;;17.40;5.22;;;9.00;99.90;;;;;;6180091;23;20027;-85
2022/04/06 02:00:13;;;;;;;21.15;5.43;;;8.90;99.90;;;;;;6046916;23;20027;-85
2022/04/06 02:03:17;;;;;;;17.38;5.68;;;9.00;99.90;;;;;;6047692;23;20065;-84
2022/04/06 02:05:42;;;;;;;18.83;5.40;;;8.90;99.90;;;;;;5953197;23;20468;-84
2022/04/06 02:08:17;;;;;;;19.15;5.03;;;8.90;99.90;;;;;;6128256;23;20013;-85
2022/04/06 02:11:27;;;;;;;16.95;5.63;;;9.00;99.90;;;;;;6166943;23;20068;-85
2022/04/06 02:14:07;;;;;;;13.93;5.22;;;9.00;99.90;;;;;;6167040;23;20056;-86
2022/04/06 02:16:54;;;;;;;16.15;5.35;;;9.00;99.90;;;;;;6170704;23;20017;-84
2022/04/06 02:19:19;;;;;;;26.10;5.45;;;8.90;99.90;;;;;;6169634;23;20027;-85
2022/04/06 02:25:11;;;;;;;13.88;4.68;;;9.00;99.90;;;;;;6126914;23;20016;-84
2022/04/06 02:27:53;;;;;;;18.17;4.80;;;9.00;99.90;;;;;;6192448;23;20005;-85
2022/04/06 02:31:00;;;;;;;16.90;4.90;;;9.00;99.90;;;;;;6192073;23;20012;-85
2022/04/06 02:33:26;;;;;;;20.77;4.70;;;9.00;99.90;;;;;;6170331;23;20012;-85
2022/04/06 02:36:34;;;;;;;17.45;5.55;;;8.90;99.90;;;;;;6169649;23;20036;-86
2022/04/06 02:39:31;;;;;;;;;;;;;;;;;;;;;
2022/04/06 02:42:09;;;;;;;15.38;4.38;;;9.00;99.90;;;;;;6173755;23;20059;-85
2022/04/06 02:44:39;;;;;;;14.57;5.57;;;9.00;99.90;;;;;;6193444;23;20048;-85
2022/04/06 02:47:44;;;;;;;14.90;5.13;;;9.00;99.90;;;;;;6169909;23;20327;-85
2022/04/06 02:50:34;;;;;;;24.80;5.45;;;9.00;99.90;;;;;;6193676;23;20048;-85
2022/04/06 03:01:01;;;;;;;;;;;;;;;;;;;;;
2022/04/06 03:03:51;;;;;;;19.00;5.80;;;9.00;99.90;;;;;;6073985;23;20834;-85
2022/04/06 03:06:32;;;;;;;12.35;5.22;;;9.00;99.90;;;;;;6044112;23;20014;-85
2022/04/06 03:09:04;;;;;;;20.65;5.90;;;9.00;99.90;;;;;;6065535;23;20011;-84
2022/04/06 03:11:53;;;;;;;20.10;6.63;;;9.00;99.90;;;;;;6040122;23;20022;-85
2022/04/06 03:14:37;;;;;;;17.38;5.82;;;9.00;99.90;;;;;;6189108;23;20013;-85
2022/04/06 03:17:31;;;;;;;17.20;6.38;;;9.00;99.90;;;;;;6161733;23;20023;-85
2022/04/06 03:20:23;;;;;;;17.60;6.35;;;9.00;99.90;;;;;;6163670;23;20330;-85
2022/04/06 03:23:17;;;;;;;29.58;6.95;;;9.00;99.90;;;;;;6214972;23;20024;-85
2022/04/06 03:25:48;;;;;;;25.02;6.70;;;9.00;99.90;;;;;;6187487;23;20023;-85
2022/04/06 03:28:19;;;;;;;25.58;7.30;;;9.00;99.90;;;;;;6163317;23;20096;-85
2022/04/06 03:31:16;;;;;;;22.35;6.80;;;9.00;99.90;;;;;;6164360;23;20016;-86
2022/04/06 03:33:48;;;;;;;24.20;7.15;;;9.00;99.90;;;;;;6163876;23;20389;-85
2022/04/06 03:40:40;;;;;;;16.27;7.57;;;9.10;99.90;;;;;;6188343;23;20021;-84
2022/04/06 03:43:29;;;;;;;25.13;7.93;;;9.10;99.90;;;;;;6188871;23;20509;-86
2022/04/06 03:46:10;;;;;;;23.45;7.25;;;9.10;99.90;;;;;;6191068;23;20092;-85
2022/04/06 03:48:38;;;;;;;14.80;6.80;;;9.10;99.90;;;;;;6165909;23;20008;-85
2022/04/06 03:51:57;;;;;;;28.98;7.90;;;9.10;99.90;;;;;;6189977;23;20154;-85
2022/04/06 03:55:08;;;;;;;;;;;;;;;;;;;;;
2022/04/06 04:00:47;;;;;;;22.33;7.63;;;9.10;99.90;;;;;;6190535;23;19922;-86
2022/04/06 04:03:59;;;;;;;19.90;6.90;;;9.10;99.90;;;;;;6077266;23;20014;-84
2022/04/06 04:07:42;;;;;;;;;;;;;;;;;;;;;
2022/04/06 04:10:26;;;;;;;27.50;5.90;;;9.10;99.90;;;;;;6035072;23;20014;-85
2022/04/06 04:13:43;;;;;;;;;;;;;;;;;;;;;
2022/04/06 04:23:57;;;;;;;16.15;5.78;;;9.10;99.90;;;;;;6181923;23;20028;-83
2022/04/06 04:26:22;;;;;;;14.13;5.15;;;9.00;99.90;;;;;;6185100;23;20096;-82
2022/04/06 04:28:48;;;;;;;15.90;6.20;;;9.00;99.90;;;;;;6162220;23;20327;-81
2022/04/06 04:31:14;;;;;;;15.57;5.07;;;9.00;99.90;;;;;;6135888;23;20013;-81
2022/04/06 04:33:39;;;;;;;16.73;4.72;;;9.00;99.90;;;;;;6136821;23;20588;-81
2022/04/06 04:36:05;;;;;;;10.95;4.93;;;9.00;99.90;;;;;;6136810;23;20009;-81
2022/04/06 04:38:30;;;;;;;14.25;4.43;;;9.00;99.90;;;;;;6162323;23;20013;-81
2022/04/06 04:40:57;;;;;;;15.65;4.70;;;9.00;99.90;;;;;;6137165;23;20044;-82
2022/04/06 04:43:22;;;;;;;16.08;4.75;;;9.00;99.90;;;;;;6138112;23;20028;-80
2022/04/06 04:45:48;;;;;;;15.07;5.13;;;9.00;99.90;;;;;;6159869;23;20013;-80
2022/04/06 04:48:14;;;;;;;14.85;4.78;;;9.00;99.90;;;;;;6137646;23;20013;-81
2022/04/06 04:50:40;;;;;;;18.80;5.35;;;9.00;99.90;;;;;;6158386;23;20021;-81
2022/04/06 04:53:06;;;;;;;17.63;5.85;;;9.00;99.90;;;;;;6162182;23;20330;-81
2022/04/06 04:55:32;;;;;;;14.05;5.72;;;9.00;99.90;;;;;;6161502;23;20020;-81
2022/04/06 04:57:58;;;;;;;11.13;4.90;;;9.00;99.90;;;;;;6186936;23;20024;-81
2022/04/06 05:00:23;;;;;;;16.98;4.50;;;9.00;99.90;;;;;;6135315;23;20017;-81
2022/04/06 05:02:49;;;;;;;14.63;4.47;;;8.90;99.90;;;;;;6160508;23;20390;-81
2022/04/06 05:05:14;;;;;;;15.95;4.72;;;8.90;99.90;;;;;;6133752;23;20040;-81
2022/04/06 05:07:40;;;;;;;16.83;6.47;;;8.90;99.90;;;;;;6157655;23;20013;-81
2022/04/06 05:10:08;;;;;;;10.93;4.25;;;8.90;99.90;;;;;;6182664;23;20017;-81
2022/04/06 05:12:34;;;;;;;21.25;6.28;;;8.90;99.90;;;;;;6156910;23;20493;-81
2022/04/06 05:15:00;;;;;;;18.20;4.50;;;8.90;99.90;;;;;;6139904;23;20354;-81
2022/04/06 05:17:26;;;;;;;12.00;4.60;;;8.90;99.90;;;;;;6189403;23;20017;-81
2022/04/06 05:19:52;;;;;;;18.83;5.03;;;8.90;99.90;;;;;;6187331;23;20025;-81
2022/04/06 05:22:17;;;;;;;13.65;5.00;;;8.90;99.90;;;;;;6157117;23;20045;-81
2022/04/06 05:24:43;;;;;;;12.60;4.68;;;8.90;99.90;;;;;;6185786;23;20335;-81
2022/04/06 05:27:09;;;;;;;13.23;4.63;;;8.90;99.90;;;;;;6159907;23;20355;-82
2022/04/06 05:29:34;;;;;;;15.48;5.88;;;8.90;99.90;;;;;;6132387;23;20016;-81
2022/04/06 05:32:00;;;;;;;12.52;4.60;;;8.90;99.90;;;;;;6156614;23;20013;-81
2022/04/06 05:34:26;;;;;;;7.25;2.97;;;8.90;99.90;;;;;;6183490;23;20013;-81
2022/04/06 05:36:51;;;;;;;9.70;3.35;;;8.90;99.90;;;;;;6183345;23;20013;-81
2022/04/06 05:39:17;;;;;;;9.23;3.63;;;9.00;99.90;;;;;;6132500;23;20017;-81
2022/04/06 05:41:49;;;;;;;12.82;2.97;;;8.90;99.90;;;;;;6157103;23;20021;-81
2022/04/06 05:44:16;;;;;;;8.77;3.17;;;8.90;99.90;;;;;;6135803;23;20067;-81
2022/04/06 05:46:42;;;;;;;12.75;2.90;;;8.90;99.90;;;;;;6186287;23;20044;-80
2022/04/06 05:49:07;;;;;;;29.63;3.78;;;9.00;99.90;;;;;;6160406;23;20068;-81
2022/04/06 05:51:34;;;;;;;10.90;3.65;;;8.90;99.90;;;;;;6159118;23;20013;-81
2022/04/06 05:54:00;;;;;;;8.77;2.60;;;8.90;99.90;;;;;;6159526;23;20439;-81
2022/04/06 05:56:26;;;;;;;8.43;2.80;;;9.00;99.90;;;;;;6136214;23;20021;-81
2022/04/06 05:58:52;;;;;;;8.02;2.20;;;9.00;99.90;;;;;;6186933;23;20095;-81
2022/04/06 06:01:17;;;;;;;12.88;3.30;;;8.90;99.90;;;;;;6159919;23;20013;-81
2022/04/06 06:03:43;;;;;;;4.22;2.10;;;8.90;99.90;;;;;;6137245;23;20009;-81
2022/04/06 06:06:08;;;;;;;9.98;2.50;;;8.90;99.90;;;;;;6161373;23;20021;-81
2022/04/06 06:08:34;;;;;;;6.43;1.90;;;9.00;99.90;;;;;;6147228;23;20037;-84
2022/04/06 06:10:59;;;;;;;4.78;2.08;;;9.00;99.90;;;;;;6170537;23;20020;-82
2022/04/06 06:13:25;;;;;;;6.43;2.10;;;9.00;99.90;;;;;;6142669;23;20024;-83
2022/04/06 06:15:50;;;;;;;5.15;1.40;;;9.00;99.90;;;;;;6133891;23;20017;-83
2022/04/06 06:18:16;;;;;;;6.20;2.00;;;9.00;99.90;;;;;;6159791;23;20096;-84
2022/04/06 06:20:41;;;;;;;6.50;1.52;;;9.00;99.90;;;;;;6184790;23;20385;-83
2022/04/06 06:23:08;;;;;;;8.18;2.22;;;9.00;99.90;;;;;;6161064;23;20435;-83
2022/04/06 06:25:34;;;;;;;6.05;1.98;;;9.00;99.90;;;;;;6186151;23;20009;-83
2022/04/06 06:27:59;;;;;;;4.97;2.20;;;9.10;99.90;;;;;;6186029;23;20013;-84
2022/04/06 06:30:27;;;;;;;8.38;2.00;;;9.00;99.90;;;;;;6159910;23;20013;-83
2022/04/06 06:32:54;;;;;;;4.72;1.95;;;9.00;99.90;;;;;;6158711;23;20012;-84
2022/04/06 06:35:20;;;;;;;9.32;1.75;;;9.00;99.90;;;;;;6159500;23;20499;-83
2022/04/06 06:37:53;;;;;;;9.15;2.10;;;9.00;99.90;;;;;;6158926;23;20013;-82
2022/04/06 06:40:20;;;;;;;11.45;2.63;;;9.00;99.90;;;;;;6158908;23;20011;-82
2022/04/06 06:42:46;;;;;;;10.50;2.13;;;9.00;99.90;;;;;;6159218;23;20041;-83
2022/04/06 06:45:12;;;;;;;7.75;1.95;;;9.00;99.90;;;;;;6158488;23;20017;-82
2022/04/06 06:47:40;;;;;;;6.53;1.85;;;8.90;99.90;;;;;;6134080;23;20474;-83
2022/04/06 06:50:07;;;;;;;9.88;2.28;;;9.00;99.90;;;;;;6133185;23;20087;-83
2022/04/06 06:52:34;;;;;;;17.60;2.45;;;8.90;99.90;;;;;;6133266;23;20017;-83
2022/04/06 06:55:04;;;;;;;7.78;2.00;;;8.90;99.90;;;;;;6184350;23;20021;-82
2022/04/06 06:57:29;;;;;;;7.30;1.85;;;8.90;99.90;;;;;;6184407;23;20032;-84
2022/04/06 06:59:55;;;;;;;6.25;1.98;;;8.90;99.90;;;;;;6184403;23;20438;-84
2022/04/06 07:02:21;;;;;;;8.82;3.92;;;8.90;99.90;;;;;;6158265;23;20082;-82
2022/04/06 07:04:47;;;;;;;7.57;1.52;;;8.90;99.90;;;;;;6135029;23;20016;-83
2022/04/06 07:07:15;;;;;;;9.20;2.22;;;9.00;99.90;;;;;;6134745;23;20009;-85
2022/04/06 07:10:04;;;;;;;8.38;2.03;;;9.00;99.90;;;;;;6158498;23;20017;-85
2022/04/06 07:13:01;;;;;;;8.90;2.20;;;9.00;99.90;;;;;;6134754;23;20060;-84
2022/04/06 07:15:35;;;;;;;11.25;2.28;;;9.00;99.90;;;;;;6158747;23;20021;-84
2022/04/06 07:24:45;;;;;;;10.43;2.10;;;9.10;99.90;;;;;;6157104;23;20028;-85
2022/04/06 07:28:14;;;;;;;8.10;1.83;;;9.10;99.90;;;;;;6177791;23;20020;-85
2022/04/06 07:31:16;;;;;;;11.90;2.65;;;9.10;99.90;;;;;;6040424;23;20046;-86
2022/04/06 07:34:20;;;;;;;7.68;2.53;;;9.10;99.90;;;;;;6064009;23;20019;-84
2022/04/06 07:36:46;;;;;;;8.05;3.42;;;9.10;99.90;;;;;;6064284;23;20071;-79
2022/04/06 07:39:12;;;;;;;13.13;3.53;;;9.10;99.90;;;;;;6039431;23;20385;-79
2022/04/06 07:41:37;;;;;;;11.15;3.03;;;9.10;99.90;;;;;;6110986;23;20507;-79
2022/04/06 07:44:03;;;;;;;11.18;2.35;;;9.10;99.90;;;;;;6158061;23;20017;-79
2022/04/06 07:46:29;;;;;;;5.07;2.65;;;9.10;99.90;;;;;;6158112;23;20013;-80
2022/04/06 07:48:54;;;;;;;12.13;3.08;;;9.10;99.90;;;;;;6158383;23;20017;-79
2022/04/06 07:51:20;;;;;;;11.43;3.67;;;9.10;99.90;;;;;;6158199;23;20466;-79
2022/04/06 07:53:45;;;;;;;8.00;2.83;;;9.10;99.90;;;;;;6158274;23;20052;-80
2022/04/06 07:56:11;;;;;;;10.90;3.63;;;9.10;99.90;;;;;;6158260;23;20077;-80
2022/04/06 07:58:36;;;;;;;16.65;3.72;;;9.10;99.90;;;;;;6158677;23;20025;-80
2022/04/06 08:01:05;;;;;;;10.63;3.90;;;9.10;99.90;;;;;;6157549;23;20041;-80
2022/04/06 08:03:31;;;;;;;13.32;2.97;;;9.10;99.90;;;;;;6160073;23;20028;-80
2022/04/06 08:05:56;;;;;;;15.40;3.85;;;9.20;99.90;;;;;;6157659;23;20088;-80
2022/04/06 08:08:22;;;;;;;8.13;2.97;;;9.20;99.90;;;;;;6133890;23;20120;-79
2022/04/06 08:10:48;;;;;;;13.02;3.45;;;9.30;99.90;;;;;;6160400;23;20021;-79
2022/04/06 08:13:14;;;;;;;7.57;2.60;;;9.40;99.90;;;;;;6160865;23;20362;-80
2022/04/06 08:15:39;;;;;;;9.77;3.72;;;9.40;99.90;;;;;;6161051;23;20020;-80
2022/04/06 08:18:06;;;;;;;7.38;3.55;;;9.40;99.90;;;;;;6160478;23;20528;-80
2022/04/06 08:24:14;;;;;;;9.10;2.70;;;9.40;99.90;;;;;;6095888;23;20037;-80
2022/04/06 08:26:40;;;;;;;6.18;2.65;;;9.40;99.90;;;;;;6063618;23;20020;-80
2022/04/06 08:29:06;;;;;;;10.52;2.53;;;9.40;99.90;;;;;;6106670;23;20049;-79
2022/04/06 08:31:31;;;;;;;15.88;3.45;;;9.50;99.90;;;;;;6135522;23;20049;-79
2022/04/06 08:33:57;;;;;;;9.85;3.78;;;9.50;99.90;;;;;;6110806;23;20017;-79
2022/04/06 08:36:23;;;;;;;10.60;3.00;;;9.50;99.90;;;;;;6105457;23;20010;-79
2022/04/06 08:38:48;;;;;;;15.63;4.97;;;9.50;99.90;;;;;;6103563;23;20020;-79
2022/04/06 08:41:16;;;;;;;7.90;3.03;;;9.50;99.90;;;;;;6126744;23;20016;-78
2022/04/06 08:43:42;;;;;;;11.73;2.20;;;9.40;99.90;;;;;;6127511;23;20018;-79
2022/04/06 08:46:10;;;;;;;18.52;3.20;;;9.50;99.90;;;;;;6104402;23;20494;-78
2022/04/06 08:48:38;;;;;;;10.40;2.72;;;9.40;99.90;;;;;;6130596;23;20013;-80
2022/04/06 08:51:09;;;;;;;8.35;2.13;;;9.50;99.90;;;;;;6130292;23;20367;-79
2022/04/06 08:53:41;;;;;;;6.60;2.20;;;9.40;99.90;;;;;;6105959;23;20448;-79
2022/04/06 08:56:07;;;;;;;11.43;2.53;;;9.40;99.90;;;;;;6127432;23;20021;-78
2022/04/06 08:58:36;;;;;;;7.82;2.05;;;9.40;99.90;;;;;;6127387;23;20328;-79
2022/04/06 09:01:02;;;;;;;7.82;2.10;;;9.50;99.90;;;;;;6132130;23;20018;-80
2022/04/06 09:03:49;;;;;;;8.70;2.22;;;9.40;99.90;;;;;;6110769;23;20021;-79
2022/04/06 09:06:18;;;;;;;4.38;2.10;;;9.40;99.90;;;;;;6134326;23;20013;-80
2022/04/06 09:08:46;;;;;;;7.00;2.42;;;9.30;99.90;;;;;;6109674;23;20019;-79
2022/04/06 09:11:21;;;;;;;7.63;2.35;;;9.20;99.90;;;;;;6109783;23;20013;-79
2022/04/06 09:13:59;;;;;;;8.05;2.60;;;9.20;99.90;;;;;;6161981;23;20049;-80
2022/04/06 09:16:44;;;;;;;5.68;1.85;;;9.20;99.90;;;;;;6138979;23;20024;-79
2022/04/06 09:19:34;;;;;;;7.35;2.22;;;9.30;99.90;;;;;;6145139;23;20049;-80
2022/04/06 09:22:00;;;;;;;7.20;2.50;;;9.40;99.90;;;;;;6141026;23;20021;-78
2022/04/06 09:24:26;;;;;;;6.85;2.55;;;9.60;99.90;;;;;;6107345;23;20016;-79
2022/04/06 09:26:59;;;;;;;7.43;2.53;;;9.80;99.90;;;;;;6140140;23;20017;-80
2022/04/06 09:29:31;;;;;;;7.47;2.20;;;9.70;99.90;;;;;;6156832;23;20020;-81
2022/04/06 09:32:09;;;;;;;6.03;2.07;;;9.80;99.90;;;;;;6133800;23;20096;-80
2022/04/06 09:34:35;;;;;;;12.30;3.08;;;9.90;99.90;;;;;;6156905;23;20013;-80
2022/04/06 09:37:28;;;;;;;8.80;2.67;;;10.00;99.90;;;;;;6132546;23;20041;-80
2022/04/06 09:39:58;;;;;;;9.00;2.80;;;10.10;99.90;;;;;;6158589;23;20009;-79
2022/04/06 09:42:28;;;;;;;7.43;2.53;;;10.10;99.90;;;;;;6158632;23;20024;-79
2022/04/06 09:47:51;;;;;;;6.70;2.42;;;10.20;99.90;;;;;;6158922;23;20056;-79
2022/04/06 09:50:22;;;;;;;8.13;2.70;;;10.10;99.90;;;;;;6157827;23;20084;-79
2022/04/06 09:52:51;;;;;;;6.38;2.80;;;10.10;99.90;;;;;;6133849;23;20059;-81
2022/04/06 09:55:18;;;;;;;6.03;2.47;;;10.20;99.90;;;;;;6158612;23;20488;-79
2022/04/06 09:57:51;;;;;;;9.10;3.35;;;10.10;99.90;;;;;;6133358;23;20070;-79
2022/04/06 10:00:31;;;;;;;6.30;2.60;;;10.10;99.90;;;;;;6158078;23;20027;-78
2022/04/06 10:03:13;;;;;;;5.75;2.83;;;10.20;99.90;;;;;;6160214;23;20013;-81
2022/04/06 10:05:42;;;;;;;6.00;3.17;;;10.30;99.90;;;;;;6138193;23;20012;-80
2022/04/06 10:08:10;;;;;;;7.40;3.20;;;10.30;99.90;;;;;;6137179;23;20461;-81
2022/04/06 10:10:38;;;;;;;7.93;2.53;;;10.20;99.90;;;;;;6135965;23;20092;-79
2022/04/06 10:13:04;;;;;;;8.15;3.15;;;10.30;99.90;;;;;;6161109;23;20009;-80
2022/04/06 10:15:30;;;;;;;5.35;2.63;;;10.30;99.90;;;;;;6136472;23;20005;-81
2022/04/06 10:17:56;;;;;;;8.32;3.05;;;10.30;99.90;;;;;;6160916;23;20084;-80
2022/04/06 10:20:31;;;;;;;8.13;3.15;;;10.20;99.90;;;;;;6160412;23;20045;-81
2022/04/06 10:23:00;;;;;;;9.50;3.08;;;10.30;99.90;;;;;;6135940;23;20554;-79
2022/04/06 10:25:39;;;;;;;15.85;4.53;;;10.30;99.90;;;;;;6188058;23;20019;-80
2022/04/06 10:28:11;;;;;;;10.43;3.08;;;10.40;99.90;;;;;;6158550;23;20009;-79
2022/04/06 10:30:36;;;;;;;11.35;3.03;;;10.60;99.90;;;;;;6132670;23;20016;-80
2022/04/06 10:33:19;;;;;;;8.73;3.22;;;10.50;99.90;;;;;;6158730;23;20048;-80
2022/04/06 10:35:45;;;;;;;12.55;3.25;;;10.50;99.90;;;;;;6134343;23;20370;-82
2022/04/06 10:38:18;;;;;;;8.27;3.40;;;10.50;99.90;;;;;;6135527;23;20179;-80
2022/04/06 10:40:46;;;;;;;10.65;3.25;;;10.40;99.90;;;;;;6133167;23;20016;-78
2022/04/06 10:43:34;;;;;;;8.27;4.63;;;10.40;99.90;;;;;;6161602;23;20024;-82
2022/04/06 10:46:00;;;;;;;7.80;3.00;;;10.30;99.90;;;;;;6135484;23;20040;-80
2022/04/06 10:48:26;;;;;;;11.02;3.47;;;10.30;99.90;;;;;;6132692;23;20063;-80
2022/04/06 10:50:51;;;;;;;9.13;3.10;;;10.30;99.90;;;;;;6157336;23;20017;-80
2022/04/06 10:53:23;;;;;;;10.80;3.67;;;10.30;99.90;;;;;;6157992;23;20092;-80
2022/04/06 10:56:01;;;;;;;4.10;3.30;;;10.30;99.90;;;;;;6157280;23;20023;-79
2022/04/06 10:58:26;;;;;;;8.13;3.80;;;10.20;99.90;;;;;;6132954;23;20048;-79
2022/04/06 11:01:14;;;;;;;6.90;3.67;;;10.20;99.90;;;;;;6156914;23;20350;-79
2022/04/06 11:03:44;;;;;;;7.07;3.22;;;10.20;99.90;;;;;;6157226;23;20088;-80
2022/04/06 11:06:10;;;;;;;5.70;3.80;;;10.10;99.90;;;;;;6157330;23;20020;-81
2022/04/06 11:11:45;;;;;;;13.80;4.57;;;10.10;99.90;;;;;;6157850;23;20353;-84
2022/04/06 11:14:33;;;;;;;7.85;4.00;;;10.10;99.90;;;;;;6136554;23;20021;-84
2022/04/06 11:17:01;;;;;;;7.25;4.20;;;10.20;99.90;;;;;;6133989;23;20009;-84
2022/04/06 11:19:28;;;;;;;12.38;4.63;;;10.20;99.90;;;;;;6133226;23;20029;-84
2022/04/06 11:21:55;;;;;;;7.97;4.65;;;10.20;99.90;;;;;;6158036;23;20477;-86
2022/04/06 11:24:28;;;;;;;10.50;4.68;;;10.30;99.90;;;;;;6133498;23;20075;-85
2022/04/06 11:34:30;;;;;;;10.75;3.47;;;10.40;99.90;;;;;;6040934;23;20026;-84
2022/04/06 11:37:31;;;;;;;14.38;5.30;;;10.60;99.90;;;;;;6035737;23;20019;-84
2022/04/06 11:40:04;;;;;;;8.40;5.25;;;10.70;99.90;;;;;;6035396;23;20019;-85
2022/04/06 11:42:39;;;;;;;12.63;4.50;;;10.90;99.90;;;;;;6036864;23;20075;-85
2022/04/06 11:45:41;;;;;;;8.60;3.90;;;11.10;99.90;;;;;;6035821;23;20020;-85
2022/04/06 11:48:25;;;;;;;9.40;4.15;;;11.00;99.90;;;;;;6035593;23;20537;-85
2022/04/06 11:51:03;;;;;;;12.30;4.50;;;11.10;99.90;;;;;;6000706;23;20031;-84
2022/04/06 11:53:31;;;;;;;13.23;5.85;;;11.00;99.90;;;;;;6130080;23;20025;-83
2022/04/06 11:55:59;;;;;;;9.90;5.15;;;11.00;99.90;;;;;;6130680;23;20013;-84
2022/04/06 11:58:32;;;;;;;9.82;4.28;;;11.00;99.90;;;;;;6130666;23;20076;-85
2022/04/06 12:01:03;;;;;;;12.77;5.18;;;11.20;99.90;;;;;;6131262;23;20016;-84
2022/04/06 12:03:53;;;;;;;8.03;4.67;;;11.40;99.90;;;;;;6106223;23;20021;-84
2022/04/06 12:06:31;;;;;;;20.25;6.07;;;11.60;99.90;;;;;;6068851;23;20015;-84
2022/04/06 12:08:57;;;;;;;8.50;5.00;;;11.70;99.90;;;;;;6071516;23;20069;-84
2022/04/06 12:11:23;;;;;;;8.32;4.50;;;11.70;99.90;;;;;;6098367;23;20394;-86
2022/04/06 12:13:56;;;;;;;11.82;4.60;;;11.80;99.90;;;;;;6131537;23;20014;-84
2022/04/06 12:16:23;;;;;;;7.00;4.47;;;11.80;99.90;;;;;;6109763;23;20022;-85
2022/04/06 12:18:50;;;;;;;7.65;4.07;;;11.80;99.90;;;;;;6105608;23;20052;-78
2022/04/06 12:21:25;;;;;;;8.13;4.65;;;11.80;99.90;;;;;;6126676;23;20084;-79
2022/04/06 12:23:52;;;;;;;10.23;4.28;;;11.70;99.90;;;;;;6127033;23;20025;-78
2022/04/06 12:26:18;;;;;;;15.32;4.50;;;11.60;99.90;;;;;;6126785;23;20014;-79
2022/04/06 12:28:57;;;;;;;7.60;3.90;;;11.40;99.90;;;;;;6127102;23;20052;-78
2022/04/06 12:31:38;;;;;;;10.35;4.65;;;11.40;99.90;;;;;;6126581;23;20025;-78
2022/04/06 12:34:10;;;;;;;8.13;4.50;;;11.20;99.90;;;;;;6127147;23;20068;-83
2022/04/06 12:36:37;;;;;;;15.18;5.63;;;11.20;99.90;;;;;;6131834;23;20470;-83
2022/04/06 12:39:16;;;;;;;7.47;3.78;;;11.20;99.90;;;;;;6132555;23;20013;-82
2022/04/06 12:42:04;;;;;;;9.55;4.65;;;11.20;99.90;;;;;;6140851;23;20063;-82
2022/04/06 12:44:33;;;;;;;8.15;3.90;;;11.40;99.90;;;;;;6138368;23;20025;-83
2022/04/06 12:47:20;;;;;;;7.00;4.50;;;11.40;99.90;;;;;;6136895;23;20068;-82
2022/04/06 12:49:49;;;;;;;12.32;5.18;;;11.30;99.90;;;;;;6127332;23;20020;-83
2022/04/06 12:53:08;;;;;;;;;;;;;;;;;;;;;
2022/04/06 12:55:41;;;;;;;8.77;4.70;;;11.40;99.90;;;;;;6105699;23;20021;-83
2022/04/06 12:58:21;;;;;;;15.35;4.95;;;11.40;99.90;;;;;;6127547;23;20021;-83
2022/04/06 13:01:29;;;;;;;8.15;4.32;;;11.40;99.90;;;;;;6125150;23;20028;-82
2022/04/06 13:05:06;;;;;;;;;;;;;;;;;;;;;
2022/04/06 13:07:31;;;;;;;10.27;4.63;;;11.20;99.90;;;;;;6126884;23;20017;-83
2022/04/06 13:10:01;;;;;;;6.05;3.97;;;11.10;99.90;;;;;;6104609;23;20455;-83
2022/04/06 13:12:35;;;;;;;9.82;4.10;;;10.90;99.90;;;;;;6129541;23;20024;-83
2022/04/06 13:15:38;;;;;;;8.52;4.65;;;11.00;99.90;;;;;;6155812;23;20525;-83
2022/04/06 13:18:05;;;;;;;11.00;4.50;;;10.90;99.90;;;;;;6106529;23;20093;-80
2022/04/06 13:20:31;;;;;;;8.75;4.82;;;10.80;99.90;;;;;;6130994;23;20017;-80
2022/04/06 13:22:56;;;;;;;11.82;4.30;;;10.80;99.90;;;;;;6106385;23;20033;-79
2022/04/06 13:25:22;;;;;;;8.73;4.47;;;10.80;99.90;;;;;;6130651;23;20086;-80
2022/04/06 13:27:48;;;;;;;8.77;4.63;;;10.80;99.90;;;;;;6130435;23;20355;-80
2022/04/06 13:30:15;;;;;;;13.23;4.80;;;10.70;99.90;;;;;;6130651;23;20443;-80
2022/04/06 13:32:42;;;;;;;11.77;4.43;;;10.60;99.90;;;;;;6130471;23;20340;-79
2022/04/06 13:35:08;;;;;;;9.65;5.22;;;10.60;99.90;;;;;;6175921;23;20332;-80
2022/04/06 13:37:34;;;;;;;12.57;5.53;;;10.50;99.90;;;;;;6160099;23;20013;-80
2022/04/06 13:40:00;;;;;;;8.68;4.63;;;10.50;99.90;;;;;;6160536;23;20024;-80
2022/04/06 13:42:25;;;;;;;6.40;4.07;;;10.50;99.90;;;;;;6136200;23;20020;-80
2022/04/06 13:44:51;;;;;;;7.63;3.95;;;10.40;99.90;;;;;;6160489;23;20027;-80
2022/04/06 13:47:17;;;;;;;6.45;4.22;;;10.30;99.90;;;;;;6159835;23;20013;-80
2022/04/06 13:49:45;;;;;;;9.70;4.30;;;10.30;99.90;;;;;;6135195;23;20517;-79
2022/04/06 13:52:12;;;;;;;6.50;3.90;;;10.20;99.90;;;;;;6160785;23;20020;-81
2022/04/06 13:54:38;;;;;;;8.55;4.20;;;10.20;99.90;;;;;;6161597;23;20338;-79
2022/04/06 13:57:04;;;;;;;10.75;4.60;;;10.20;99.90;;;;;;6160313;23;20017;-80
2022/04/06 13:59:29;;;;;;;8.60;5.03;;;10.20;99.90;;;;;;6187869;23;20020;-80
2022/04/06 14:02:00;;;;;;;9.00;4.70;;;10.20;99.90;;;;;;6162474;23;20009;-80
2022/04/06 14:04:25;;;;;;;10.30;3.97;;;10.20;99.90;;;;;;6165407;23;20021;-80
2022/04/06 14:06:53;;;;;;;6.18;4.00;;;10.10;99.90;;;;;;6138820;23;20025;-80
2022/04/06 14:09:22;;;;;;;7.30;4.15;;;10.10;99.90;;;;;;6188251;23;20011;-79
2022/04/06 14:12:01;;;;;;;;;;;;;;;;;;;;;
2022/04/06 14:14:32;;;;;;;6.07;3.83;;;10.10;99.90;;;;;;6164043;23;20017;-80
2022/04/06 14:16:58;;;;;;;8.65;4.30;;;10.00;99.90;;;;;;6164214;23;20021;-80
2022/04/06 14:19:29;;;;;;;7.15;3.83;;;10.00;99.90;;;;;;6189555;23;20017;-80
2022/04/06 14:21:54;;;;;;;7.72;4.22;;;10.00;99.90;;;;;;6190370;23;20020;-80
2022/04/06 14:24:20;;;;;;;4.55;3.60;;;10.00;99.90;;;;;;6163983;23;20021;-79
2022/04/06 14:26:50;;;;;;;6.82;3.42;;;9.90;99.90;;;;;;6139308;23;20027;-81
2022/04/06 14:29:21;;;;;;;9.32;4.38;;;9.90;99.90;;;;;;6163448;23;20015;-80
2022/04/06 14:31:49;;;;;;;7.00;3.70;;;9.90;99.90;;;;;;6162865;23;20015;-80
2022/04/06 14:34:18;;;;;;;6.25;4.00;;;9.90;99.90;;;;;;6189108;23;20039;-80
2022/04/06 14:36:45;;;;;;;7.82;4.15;;;9.90;99.90;;;;;;6188007;23;20016;-80
2022/04/06 14:39:11;;;;;;;6.22;3.40;;;9.90;99.90;;;;;;6161109;23;20067;-80
2022/04/06 14:41:36;;;;;;;6.00;3.97;;;9.80;99.90;;;;;;6159969;23;20512;-80
2022/04/06 14:44:02;;;;;;;7.07;4.63;;;9.80;99.90;;;;;;6160135;23;20013;-80
2022/04/06 14:46:28;;;;;;;5.15;3.80;;;9.80;99.90;;;;;;6187537;23;20041;-80
2022/04/06 14:48:54;;;;;;;6.63;4.00;;;9.80;99.90;;;;;;6162586;23;20021;-80
2022/04/06 14:51:20;;;;;;;7.47;3.65;;;9.80;99.90;;;;;;6187588;23;20031;-80
2022/04/06 14:53:45;;;;;;;6.07;4.55;;;9.90;99.90;;;;;;6163117;23;20537;-79
2022/04/06 14:56:13;;;;;;;7.55;4.55;;;9.90;99.90;;;;;;6136071;23;20016;-81
2022/04/06 14:58:39;;;;;;;10.43;4.53;;;10.00;99.90;;;;;;6161051;23;20028;-82
2022/04/06 15:01:07;;;;;;;9.63;5.57;;;10.00;99.90;;;;;;6162952;23;20154;-83
2022/04/06 15:03:35;;;;;;;9.70;4.50;;;10.00;99.90;;;;;;6171251;23;20073;-85
2022/04/06 15:06:01;;;;;;;9.45;4.95;;;10.00;99.90;;;;;;6169789;23;20608;-84
2022/04/06 15:08:27;;;;;;;7.53;4.45;;;10.10;99.90;;;;;;6162981;23;20012;-84
2022/04/06 15:11:33;;;;;;;9.95;5.35;;;10.20;99.90;;;;;;6164892;23;20413;-81
2022/04/06 15:14:44;;;;;;;7.80;5.03;;;10.20;99.90;;;;;;6165202;23;20024;-82
2022/04/06 15:20:35;;;;;;;10.38;5.30;;;10.30;99.90;;;;;;6106720;23;20061;-81
2022/04/06 15:23:16;;;;;;;8.63;5.32;;;10.30;99.90;;;;;;6162589;23;20048;-80
2022/04/06 15:25:48;;;;;;;7.65;4.97;;;10.30;99.90;;;;;;6162946;23;20020;-82
2022/04/06 15:28:23;;;;;;;6.47;4.78;;;10.40;99.90;;;;;;6188006;23;20009;-81
2022/04/06 15:31:12;;;;;;;6.97;5.18;;;10.40;99.90;;;;;;6095436;23;20026;-81
2022/04/06 15:37:24;;;;;;;5.88;4.22;;;10.30;99.90;;;;;;6156903;23;20405;-81
2022/04/06 15:39:58;;;;;;;5.05;3.90;;;10.40;99.90;;;;;;6161510;23;20020;-82
2022/04/06 15:42:35;;;;;;;5.47;4.03;;;10.40;99.90;;;;;;6161840;23;20013;-81
2022/04/06 15:45:12;;;;;;;5.47;3.92;;;10.40;99.90;;;;;;6136509;23;20100;-82
2022/04/06 15:48:27;;;;;;;5.65;3.95;;;10.40;99.90;;;;;;6161241;23;20013;-82
2022/04/06 15:51:03;;;;;;;;;;;;;;;;;;;;;
2022/04/06 15:53:57;;;;;;;4.65;3.35;;;10.40;99.90;;;;;;6161564;23;20009;-82
2022/04/06 15:56:29;;;;;;;4.78;2.85;;;10.50;99.90;;;;;;6163833;23;20009;-82
2022/04/06 15:59:05;;;;;;;41.20;20.30;;;10.50;99.90;;;;;;6205004;23;20013;-83
2022/04/06 16:01:30;;;;;;;5.40;3.13;;;10.40;99.90;;;;;;6177684;23;20021;-80
2022/04/06 16:03:59;;;;;;;2.97;2.67;;;10.40;99.90;;;;;;6161872;23;20016;-80